Time;durP1;ratioP1;P1;durP2;ratioP2;P2;SDS_P1;SDS_P2;PMS_P1;PMS_P2;Temp;Humidity;BMP_temperature;BMP_pressure;BME280_temperature;BME280_humidity;BME280_pressure;Samples;Min_cycle;Max_cycle;Signal;HPM_P1;HPM_P2
2022/05/15 00:01:27;;;;;;;4.67;3.70;;;11.40;99.90;;;;;;4954551;29;20215;-71
2022/05/15 00:03:53;;;;;;;4.53;3.53;;;11.40;99.90;;;;;;4953975;28;20432;-71
2022/05/15 00:06:18;;;;;;;7.10;4.40;;;11.30;99.90;;;;;;4954007;29;20450;-71
2022/05/15 00:08:44;;;;;;;12.40;4.20;;;11.20;99.90;;;;;;4953904;28;20207;-71
2022/05/15 00:11:12;;;;;;;4.00;3.60;;;11.20;99.90;;;;;;4954005;28;20256;-72
2022/05/15 00:13:39;;;;;;;5.03;4.00;;;11.20;99.90;;;;;;4954523;28;20191;-73
2022/05/15 00:16:05;;;;;;;4.13;3.80;;;11.10;99.90;;;;;;4953272;29;20459;-71
2022/05/15 00:18:31;;;;;;;5.57;3.90;;;11.10;99.90;;;;;;4954429;28;20443;-71
2022/05/15 00:20:57;;;;;;;4.20;3.77;;;11.10;99.90;;;;;;4953440;29;20929;-73
2022/05/15 00:23:24;;;;;;;5.50;4.10;;;11.10;99.90;;;;;;4953520;28;20192;-71
2022/05/15 00:25:50;;;;;;;8.63;4.03;;;11.00;99.90;;;;;;4952860;28;20193;-72
2022/05/15 00:28:16;;;;;;;6.30;4.93;;;11.00;99.90;;;;;;4953869;28;20467;-71
2022/05/15 00:30:42;;;;;;;5.77;3.80;;;11.00;99.90;;;;;;4953268;28;20523;-71
2022/05/15 00:33:08;;;;;;;4.00;3.63;;;11.00;99.90;;;;;;4953984;28;20578;-72
2022/05/15 00:35:35;;;;;;;3.90;3.53;;;11.00;99.90;;;;;;4953480;28;20185;-73
2022/05/15 00:38:02;;;;;;;4.63;3.93;;;11.00;99.90;;;;;;4953965;28;20489;-71
2022/05/15 00:40:28;;;;;;;5.00;3.67;;;10.90;99.90;;;;;;4953161;28;20979;-72
2022/05/15 00:42:54;;;;;;;6.37;3.73;;;10.90;99.90;;;;;;4934792;29;20429;-71
2022/05/15 00:45:21;;;;;;;5.87;4.00;;;10.80;99.90;;;;;;4935160;29;20188;-71
2022/05/15 00:47:47;;;;;;;5.87;4.43;;;10.80;99.90;;;;;;4953315;28;20192;-71
2022/05/15 00:50:16;;;;;;;9.30;4.40;;;10.80;99.90;;;;;;4953606;28;20464;-71
2022/05/15 00:52:45;;;;;;;4.60;3.63;;;10.70;99.90;;;;;;4952344;29;20201;-71
2022/05/15 00:55:21;;;;;;;7.27;4.00;;;10.70;99.90;;;;;;4953708;28;20415;-71
2022/05/15 00:57:51;;;;;;;4.10;3.70;;;10.60;99.90;;;;;;4952621;28;20436;-71
2022/05/15 02:30:54;;;;;;;7.10;4.73;;;9.80;99.90;;;;;;5893118;23;20761;-68
2022/05/15 02:33:20;;;;;;;7.50;4.80;;;9.80;99.90;;;;;;4948786;28;20452;-70
2022/05/15 02:35:46;;;;;;;5.10;4.60;;;9.70;99.90;;;;;;4954459;28;20253;-70
2022/05/15 02:38:11;;;;;;;4.60;4.20;;;9.70;99.90;;;;;;4955140;28;20396;-70
2022/05/15 02:40:37;;;;;;;6.70;4.97;;;9.70;99.90;;;;;;4953039;28;20435;-70
2022/05/15 02:43:03;;;;;;;6.70;4.83;;;9.70;99.90;;;;;;4954336;28;20190;-69
2022/05/15 02:45:28;;;;;;;5.00;4.60;;;9.70;99.90;;;;;;4954202;29;20196;-69
2022/05/15 02:47:54;;;;;;;4.50;4.10;;;9.60;99.90;;;;;;4955069;28;20191;-70
2022/05/15 02:53:05;;;;;;;4.13;3.83;;;9.50;99.90;;;;;;4952701;28;20206;-70
2022/05/15 02:55:30;;;;;;;4.87;4.47;;;9.50;99.90;;;;;;4954033;29;20406;-70
2022/05/15 02:57:56;;;;;;;8.33;4.27;;;9.50;99.90;;;;;;4954236;28;20227;-70
2022/05/15 03:00:23;;;;;;;7.87;4.60;;;9.40;99.90;;;;;;4954279;28;20675;-68
2022/05/15 03:02:49;;;;;;;7.30;5.07;;;9.40;99.90;;;;;;4952748;28;20247;-69
2022/05/15 03:05:16;;;;;;;7.27;4.90;;;9.30;99.90;;;;;;4954550;29;20417;-69
2022/05/15 03:07:45;;;;;;;5.73;4.30;;;9.30;99.90;;;;;;4953915;28;20202;-68
2022/05/15 03:10:13;;;;;;;4.90;3.93;;;9.30;99.90;;;;;;4954392;28;21160;-69
2022/05/15 03:12:38;;;;;;;8.83;4.23;;;9.30;99.90;;;;;;4952445;29;20593;-69
2022/05/15 03:15:05;;;;;;;4.77;4.27;;;9.30;99.90;;;;;;4952665;28;20509;-70
2022/05/15 03:17:34;;;;;;;5.07;4.10;;;9.30;99.90;;;;;;4953794;28;20244;-72
2022/05/15 03:20:01;;;;;;;4.53;4.10;;;9.20;99.90;;;;;;4954487;28;20480;-70
2022/05/15 03:22:26;;;;;;;5.83;4.23;;;9.20;99.90;;;;;;4952008;28;20468;-70
2022/05/15 03:24:52;;;;;;;4.60;4.20;;;9.20;99.90;;;;;;4953964;29;20418;-70
2022/05/15 03:27:17;;;;;;;7.63;3.63;;;9.20;99.90;;;;;;4953361;28;20667;-68
2022/05/15 03:29:43;;;;;;;5.23;4.27;;;9.20;99.90;;;;;;4952796;28;20257;-70
2022/05/15 03:32:08;;;;;;;6.50;3.80;;;9.20;99.90;;;;;;4952303;28;20229;-71
2022/05/15 03:34:34;;;;;;;6.50;5.50;;;9.10;99.90;;;;;;4953247;28;20197;-71
2022/05/15 03:36:59;;;;;;;4.70;4.07;;;9.10;99.90;;;;;;4953659;28;20193;-70
2022/05/15 03:39:25;;;;;;;5.93;4.37;;;9.10;99.90;;;;;;4952452;28;20186;-70
2022/05/15 03:41:50;;;;;;;5.40;3.87;;;9.10;99.90;;;;;;4953495;28;20694;-69
2022/05/15 03:44:17;;;;;;;10.20;4.23;;;9.10;99.90;;;;;;4952224;28;20198;-70
2022/05/15 03:46:43;;;;;;;6.37;3.60;;;9.20;99.90;;;;;;4953434;29;20539;-67
2022/05/15 03:49:11;;;;;;;4.90;4.47;;;9.10;99.90;;;;;;4953117;28;21057;-69
2022/05/15 03:51:37;;;;;;;7.80;3.70;;;9.10;99.90;;;;;;4952333;29;20464;-70
2022/05/15 03:54:03;;;;;;;4.10;3.50;;;9.10;99.90;;;;;;4952945;28;20409;-69
2022/05/15 03:59:14;;;;;;;4.33;3.37;;;9.10;99.90;;;;;;4953087;28;20501;-69
2022/05/15 04:01:40;;;;;;;4.20;3.47;;;9.10;99.90;;;;;;4952269;29;20844;-70
2022/05/15 04:04:05;;;;;;;5.70;4.13;;;9.10;99.90;;;;;;4952861;29;20474;-70
2022/05/15 04:06:31;;;;;;;6.90;4.47;;;9.20;99.90;;;;;;4952656;28;20292;-71
2022/05/15 04:08:56;;;;;;;6.80;4.43;;;9.20;99.90;;;;;;4952788;28;20582;-70
2022/05/15 04:11:22;;;;;;;5.93;3.47;;;9.20;99.90;;;;;;4952209;28;20269;-67
2022/05/15 04:13:48;;;;;;;4.00;3.60;;;9.30;99.90;;;;;;4952898;28;20190;-70
2022/05/15 04:16:13;;;;;;;5.60;3.60;;;9.30;99.90;;;;;;4952005;28;21017;-71
2022/05/15 04:18:40;;;;;;;4.10;3.63;;;9.40;99.90;;;;;;4953202;28;20269;-70
2022/05/15 04:21:05;;;;;;;3.93;3.43;;;9.40;99.90;;;;;;4951721;29;20312;-72
2022/05/15 04:23:31;;;;;;;5.13;3.40;;;9.50;99.90;;;;;;4952458;28;20566;-73
2022/05/15 04:25:56;;;;;;;4.30;3.87;;;9.50;99.90;;;;;;4952445;28;20199;-73
2022/05/15 04:28:22;;;;;;;8.03;3.97;;;9.60;99.90;;;;;;4952962;29;20599;-70
2022/05/15 04:30:48;;;;;;;3.90;3.50;;;9.60;99.90;;;;;;4951487;28;20191;-73
2022/05/15 04:33:13;;;;;;;8.50;4.47;;;9.70;99.90;;;;;;4952395;28;20469;-70
2022/05/15 04:35:39;;;;;;;5.30;4.27;;;9.80;99.90;;;;;;4951576;29;20180;-70
2022/05/15 04:38:06;;;;;;;8.07;3.70;;;9.80;99.90;;;;;;4951198;28;20602;-70
2022/05/15 04:40:32;;;;;;;3.97;3.60;;;9.90;99.90;;;;;;4951421;28;20872;-68
2022/05/15 04:42:58;;;;;;;6.67;3.77;;;10.00;99.90;;;;;;4952214;28;20434;-70
2022/05/15 04:45:24;;;;;;;6.40;3.40;;;10.10;99.90;;;;;;4952486;29;20180;-70
2022/05/15 04:47:50;;;;;;;5.13;3.90;;;10.10;99.90;;;;;;4951660;28;20458;-71
2022/05/15 04:50:16;;;;;;;5.07;3.40;;;10.20;99.90;;;;;;4951989;29;20210;-70
2022/05/15 04:52:41;;;;;;;5.93;4.87;;;10.30;99.90;;;;;;4951343;29;20215;-68
2022/05/15 04:55:08;;;;;;;4.60;4.00;;;10.40;99.90;;;;;;4952795;28;20515;-70
2022/05/15 04:57:33;;;;;;;8.57;4.10;;;10.60;99.90;;;;;;4951247;29;20207;-71
2022/05/15 04:59:59;;;;;;;5.47;3.80;;;10.70;99.90;;;;;;4952904;28;20456;-71
2022/05/15 05:02:24;;;;;;;4.40;3.70;;;10.90;99.90;;;;;;4950972;28;20215;-71
2022/05/15 05:04:50;;;;;;;7.27;4.13;;;11.00;99.90;;;;;;4952161;28;20673;-72
2022/05/15 05:07:15;;;;;;;4.40;3.43;;;11.20;99.90;;;;;;4951897;29;20569;-72
2022/05/15 05:09:41;;;;;;;5.20;3.30;;;11.40;99.90;;;;;;4951820;29;20596;-72
2022/05/15 05:12:07;;;;;;;4.23;3.83;;;11.70;99.90;;;;;;4951224;28;20239;-72
2022/05/15 05:14:33;;;;;;;8.83;3.27;;;12.20;99.90;;;;;;4952147;28;20251;-72
2022/05/15 05:16:58;;;;;;;3.70;3.03;;;13.90;99.90;;;;;;4952077;28;20911;-72
2022/05/15 05:19:24;;;;;;;5.30;3.40;;;16.10;99.90;;;;;;4951443;28;20197;-73
2022/05/15 05:21:49;;;;;;;8.67;3.40;;;18.10;99.90;;;;;;4951253;28;20209;-73
2022/05/15 05:24:15;;;;;;;4.30;3.37;;;20.20;99.90;;;;;;4951911;29;20203;-72
2022/05/15 05:26:40;;;;;;;5.50;4.20;;;22.00;99.90;;;;;;4952325;28;20185;-74
2022/05/15 05:29:06;;;;;;;3.97;3.63;;;23.30;99.90;;;;;;4950741;28;20748;-73
2022/05/15 05:31:32;;;;;;;3.87;3.47;;;24.00;99.90;;;;;;4951210;28;20736;-73
2022/05/15 05:33:57;;;;;;;4.10;3.70;;;24.40;99.90;;;;;;4951186;28;20223;-73
2022/05/15 05:36:23;;;;;;;3.90;3.50;;;24.90;99.90;;;;;;4951286;28;20650;-73
2022/05/15 05:38:49;;;;;;;3.47;3.13;;;25.40;99.90;;;;;;4951845;28;20411;-73
2022/05/15 05:41:14;;;;;;;4.10;3.70;;;25.10;99.90;;;;;;4950984;29;20204;-73
2022/05/15 05:43:40;;;;;;;6.83;4.30;;;25.10;99.90;;;;;;4951489;29;20204;-73
2022/05/15 05:46:05;;;;;;;7.90;3.83;;;25.10;99.90;;;;;;4952035;29;20308;-72
2022/05/15 05:48:31;;;;;;;3.57;3.27;;;25.30;99.90;;;;;;4951394;28;20259;-72
2022/05/15 05:50:57;;;;;;;4.50;3.83;;;25.30;99.90;;;;;;4950768;28;20284;-71
2022/05/15 05:53:23;;;;;;;8.33;3.63;;;25.00;99.90;;;;;;4950655;28;20185;-71
2022/05/15 05:55:48;;;;;;;4.60;3.60;;;24.20;99.90;;;;;;4953826;28;20239;-71
2022/05/15 05:58:14;;;;;;;5.87;3.60;;;23.50;99.90;;;;;;4956087;28;20204;-72
2022/05/15 06:00:39;;;;;;;9.87;3.70;;;23.00;99.90;;;;;;4954318;28;20189;-71
2022/05/15 06:05:51;;;;;;;5.33;4.00;;;22.30;99.90;;;;;;4955080;29;20316;-71
2022/05/15 06:08:17;;;;;;;7.47;3.87;;;21.80;99.90;;;;;;4955100;28;20435;-77
2022/05/15 06:10:43;;;;;;;5.40;4.03;;;21.50;99.90;;;;;;4954052;28;20808;-70
2022/05/15 06:13:10;;;;;;;7.03;4.43;;;21.10;99.90;;;;;;4955237;28;20555;-73
2022/05/15 06:15:35;;;;;;;5.37;4.50;;;21.00;99.90;;;;;;4955193;28;20548;-72
2022/05/15 06:18:04;;;;;;;5.00;3.90;;;20.90;99.90;;;;;;4955825;28;20506;-76
2022/05/15 06:20:29;;;;;;;7.57;4.60;;;20.90;99.90;;;;;;4954886;28;20177;-72
2022/05/15 06:22:55;;;;;;;4.67;3.63;;;20.90;99.90;;;;;;4955401;28;20564;-72
2022/05/15 06:25:21;;;;;;;3.90;3.00;;;21.20;99.90;;;;;;4956904;28;20207;-76
2022/05/15 06:27:47;;;;;;;4.27;3.67;;;21.20;99.90;;;;;;4957523;28;21007;-73
2022/05/15 06:30:13;;;;;;;4.80;3.57;;;21.40;99.90;;;;;;4954821;28;20559;-73
2022/05/15 06:32:39;;;;;;;3.83;3.07;;;21.50;99.90;;;;;;4953393;28;20220;-73
2022/05/15 06:35:07;;;;;;;6.03;3.03;;;21.60;99.90;;;;;;4954756;28;20957;-73
2022/05/15 06:37:33;;;;;;;3.40;3.10;;;21.70;99.90;;;;;;4954390;28;20196;-72
2022/05/15 06:39:58;;;;;;;4.07;2.70;;;22.00;99.90;;;;;;4954758;28;20412;-71
2022/05/15 06:42:25;;;;;;;4.73;3.27;;;22.50;99.90;;;;;;4953053;28;20205;-72
2022/05/15 06:44:51;;;;;;;6.00;3.40;;;22.50;99.90;;;;;;4955253;28;20256;-72
2022/05/15 06:47:16;;;;;;;3.43;3.13;;;22.70;99.90;;;;;;4954587;28;20543;-77
2022/05/15 06:49:42;;;;;;;3.20;2.90;;;22.80;99.90;;;;;;4954912;28;20579;-73
2022/05/15 06:52:07;;;;;;;5.73;2.70;;;22.80;99.90;;;;;;4953588;28;20222;-72
2022/05/15 06:54:33;;;;;;;4.57;2.37;;;23.00;99.90;;;;;;4954488;28;20208;-72
2022/05/15 06:59:43;;;;;;;2.90;2.40;;;23.20;99.90;;;;;;4955414;28;20183;-72
2022/05/15 07:02:08;;;;;;;4.07;2.50;;;23.00;99.90;;;;;;4953845;28;20538;-71
2022/05/15 07:04:34;;;;;;;4.07;3.07;;;23.20;99.90;;;;;;4954551;28;20657;-72
2022/05/15 07:07:00;;;;;;;5.73;2.63;;;23.10;99.90;;;;;;4953597;28;20280;-72
2022/05/15 07:09:27;;;;;;;4.77;3.27;;;23.30;99.90;;;;;;4953872;28;20271;-73
2022/05/15 07:11:53;;;;;;;3.03;2.77;;;23.10;99.90;;;;;;4953999;29;20640;-74
2022/05/15 07:14:19;;;;;;;5.17;3.00;;;23.10;99.90;;;;;;4947075;28;20480;-71
2022/05/15 07:16:45;;;;;;;4.33;3.10;;;23.30;99.90;;;;;;4934971;29;20906;-72
2022/05/15 07:19:10;;;;;;;3.07;2.70;;;23.40;99.90;;;;;;4951539;29;20196;-74
2022/05/15 07:21:36;;;;;;;4.83;2.67;;;23.50;99.90;;;;;;4953549;28;20522;-72
2022/05/15 07:24:01;;;;;;;5.83;2.93;;;23.40;99.90;;;;;;4953952;28;20242;-71
2022/05/15 07:26:27;;;;;;;3.30;3.00;;;23.60;99.90;;;;;;4953994;28;20227;-72
2022/05/15 07:28:52;;;;;;;3.70;2.90;;;23.60;99.90;;;;;;4953073;28;20693;-72
2022/05/15 07:31:19;;;;;;;4.20;2.80;;;23.80;99.90;;;;;;4953419;28;20205;-71
2022/05/15 07:33:46;;;;;;;7.70;2.73;;;23.80;99.90;;;;;;4953443;28;20319;-71
2022/05/15 07:36:12;;;;;;;5.03;2.90;;;24.00;99.90;;;;;;4952260;28;20423;-72
2022/05/15 07:38:38;;;;;;;3.30;3.00;;;24.10;99.90;;;;;;4952818;29;20444;-73
2022/05/15 07:41:04;;;;;;;3.07;2.70;;;24.10;99.90;;;;;;4953646;28;20577;-70
2022/05/15 07:43:30;;;;;;;7.40;2.33;;;24.10;99.90;;;;;;4953643;28;20540;-71
2022/05/15 07:45:55;;;;;;;2.40;2.20;;;24.20;99.90;;;;;;4953882;28;20495;-72
2022/05/15 07:48:21;;;;;;;4.03;1.90;;;24.30;99.90;;;;;;4953976;28;20556;-72
2022/05/15 07:50:48;;;;;;;9.90;2.63;;;24.30;99.90;;;;;;4952617;28;20191;-75
2022/05/15 07:53:14;;;;;;;5.30;2.67;;;24.40;99.90;;;;;;4953437;28;20215;-72
2022/05/15 07:55:40;;;;;;;2.13;1.90;;;24.70;99.90;;;;;;4952806;28;20804;-71
2022/05/15 07:58:05;;;;;;;4.80;1.90;;;25.00;99.90;;;;;;4953984;28;20421;-71
2022/05/15 08:00:31;;;;;;;3.00;1.90;;;25.40;99.90;;;;;;4943975;29;20284;-71
2022/05/15 08:03:07;;;;;;;3.10;2.23;;;25.50;99.90;;;;;;4934656;29;20201;-72
2022/05/15 08:08:18;;;;;;;4.70;2.53;;;25.30;99.90;;;;;;4950114;28;20717;-71
2022/05/15 08:10:45;;;;;;;2.67;1.87;;;25.20;99.90;;;;;;4951967;28;20864;-71
2022/05/15 08:13:13;;;;;;;4.70;2.10;;;25.80;99.90;;;;;;4953673;28;20412;-71
2022/05/15 08:15:41;;;;;;;3.00;1.90;;;26.40;99.90;;;;;;4951994;28;20810;-75
2022/05/15 08:23:46;;;;;;;3.27;1.60;;;27.50;99.90;;;;;;4952972;28;20503;-72
2022/05/15 08:26:12;;;;;;;3.67;1.77;;;27.80;99.90;;;;;;4952270;28;20439;-73
2022/05/15 08:28:38;;;;;;;6.23;2.40;;;27.40;99.40;;;;;;4952194;29;20531;-72
2022/05/15 08:31:06;;;;;;;4.53;1.83;;;27.20;99.90;;;;;;4951680;28;20518;-72
2022/05/15 08:33:33;;;;;;;2.60;1.87;;;27.40;99.90;;;;;;4952412;28;20454;-72
2022/05/15 08:35:58;;;;;;;7.10;1.77;;;27.80;99.90;;;;;;4952138;29;20991;-72
2022/05/15 08:38:24;;;;;;;2.60;1.70;;;28.20;99.90;;;;;;4952961;28;20428;-72
2022/05/15 08:40:58;;;;;;;2.27;1.90;;;28.70;99.80;;;;;;4951828;29;20224;-75
2022/05/15 08:43:35;;;;;;;3.47;1.90;;;28.90;98.50;;;;;;4952024;29;20227;-72
2022/05/15 08:46:14;;;;;;;3.00;1.80;;;28.90;99.30;;;;;;4952482;28;20443;-74
2022/05/15 08:48:40;;;;;;;2.60;1.80;;;28.70;96.40;;;;;;4945621;29;20599;-72
2022/05/15 08:51:08;;;;;;;2.40;2.07;;;28.80;96.30;;;;;;4952089;28;20462;-72
2022/05/15 08:53:37;;;;;;;2.97;1.83;;;28.70;97.60;;;;;;4952296;28;20691;-72
2022/05/15 08:56:07;;;;;;;1.90;1.70;;;29.00;97.90;;;;;;4953023;28;20819;-72
2022/05/15 08:58:54;;;;;;;2.13;1.60;;;29.30;98.60;;;;;;4951606;28;20437;-72
2022/05/15 09:01:23;;;;;;;1.83;1.43;;;29.50;98.90;;;;;;4952149;28;20535;-72
2022/05/15 09:03:49;;;;;;;4.73;2.07;;;29.90;95.50;;;;;;4952492;29;20448;-72
2022/05/15 09:06:42;;;;;;;2.50;1.40;;;29.60;96.00;;;;;;4952732;28;20968;-71
2022/05/15 09:09:35;;;;;;;4.30;1.87;;;29.70;94.80;;;;;;4951418;28;20307;-71
2022/05/15 09:12:15;;;;;;;3.50;1.77;;;29.90;94.60;;;;;;4952083;28;20436;-74
2022/05/15 09:14:58;;;;;;;7.53;2.20;;;30.20;94.80;;;;;;4949798;28;20439;-73
2022/05/15 09:17:35;;;;;;;4.97;1.57;;;30.20;97.30;;;;;;4951479;28;20409;-72
2022/05/15 09:20:26;;;;;;;1.77;1.50;;;30.50;94.40;;;;;;4952124;28;20450;-75
2022/05/15 09:23:05;;;;;;;3.40;1.80;;;30.70;93.30;;;;;;4944416;28;20911;-71
2022/05/15 09:25:36;;;;;;;2.20;1.60;;;31.10;93.10;;;;;;4952115;28;20944;-73
2022/05/15 09:28:12;;;;;;;1.70;1.40;;;31.30;91.20;;;;;;4951886;28;20428;-69
2022/05/15 09:30:42;;;;;;;1.60;1.43;;;30.80;90.50;;;;;;4945563;29;20475;-71
2022/05/15 09:33:32;;;;;;;6.03;1.63;;;30.10;91.90;;;;;;4952111;28;20482;-71
2022/05/15 09:36:22;;;;;;;2.30;1.40;;;30.40;92.20;;;;;;4952039;28;20474;-71
2022/05/15 09:38:50;;;;;;;2.70;1.70;;;30.70;92.20;;;;;;4951487;28;20444;-74
2022/05/15 09:44:33;;;;;;;1.57;1.47;;;30.70;91.40;;;;;;4951996;29;20474;-71
2022/05/15 09:47:20;;;;;;;5.50;1.60;;;30.60;90.20;;;;;;4952747;28;20407;-71
2022/05/15 09:49:46;;;;;;;3.97;1.40;;;30.20;89.90;;;;;;4951685;29;20495;-70
2022/05/15 09:52:34;;;;;;;2.20;1.50;;;30.30;91.50;;;;;;4951109;28;20460;-71
2022/05/15 09:55:23;;;;;;;3.83;1.53;;;30.70;91.50;;;;;;4951489;28;20204;-71
2022/05/15 09:57:58;;;;;;;2.00;1.47;;;31.20;90.90;;;;;;4952684;29;20511;-74
2022/05/15 10:00:25;;;;;;;3.10;1.70;;;31.50;90.90;;;;;;4950836;28;20439;-71
2022/05/15 10:02:53;;;;;;;2.13;1.57;;;31.60;87.40;;;;;;4953483;28;20567;-71
2022/05/15 10:05:28;;;;;;;7.43;1.40;;;31.80;87.60;;;;;;4953726;28;20519;-71
2022/05/15 10:08:04;;;;;;;3.90;1.50;;;31.40;83.60;;;;;;4952682;28;20447;-75
2022/05/15 10:10:34;;;;;;;1.67;1.20;;;31.10;82.40;;;;;;4945292;28;20479;-71
2022/05/15 10:13:13;;;;;;;1.67;1.27;;;31.00;83.40;;;;;;4950194;28;20446;-71
2022/05/15 10:15:50;;;;;;;3.60;1.37;;;31.10;82.60;;;;;;4951940;28;20534;-71
2022/05/15 10:18:21;;;;;;;2.20;1.33;;;31.40;85.10;;;;;;4952303;28;20416;-70
2022/05/15 10:20:48;;;;;;;4.13;1.70;;;31.40;83.20;;;;;;4950981;28;20436;-74
2022/05/15 10:23:18;;;;;;;5.27;1.93;;;30.90;83.90;;;;;;4951576;28;20451;-71
2022/05/15 10:25:51;;;;;;;6.87;1.67;;;30.90;81.80;;;;;;4951769;28;20436;-71
2022/05/15 10:28:35;;;;;;;6.30;1.33;;;31.20;84.40;;;;;;4932975;29;20420;-77
2022/05/15 10:31:08;;;;;;;1.83;1.30;;;31.00;82.40;;;;;;4935306;29;20472;-77
2022/05/15 10:33:37;;;;;;;2.13;1.30;;;31.40;87.10;;;;;;4951458;28;20824;-72
2022/05/15 10:36:15;;;;;;;1.67;1.53;;;31.30;80.70;;;;;;4950964;28;20495;-71
2022/05/15 10:38:55;;;;;;;3.90;1.17;;;31.40;82.20;;;;;;4952160;29;20936;-71
2022/05/15 10:41:33;;;;;;;1.60;1.50;;;31.10;85.50;;;;;;4950538;28;20454;-73
2022/05/15 10:44:20;;;;;;;2.07;1.53;;;30.90;84.20;;;;;;4955520;28;21000;-71
2022/05/15 10:47:04;;;;;;;3.63;1.80;;;31.50;80.50;;;;;;4969111;28;20432;-71
2022/05/15 10:49:55;;;;;;;2.70;1.27;;;31.80;84.30;;;;;;4954981;28;20452;-71
2022/05/15 10:52:31;;;;;;;6.23;2.00;;;31.20;78.90;;;;;;4953784;28;20456;-75
2022/05/15 10:58:21;;;;;;;3.33;1.73;;;30.00;81.90;;;;;;4955260;29;20494;-71
2022/05/15 11:01:09;;;;;;;3.73;2.17;;;30.20;82.70;;;;;;4953997;29;20416;-71
2022/05/15 11:03:58;;;;;;;1.40;1.00;;;30.80;86.00;;;;;;4954282;29;20467;-71
2022/05/15 11:06:31;;;;;;;2.93;1.43;;;30.90;82.40;;;;;;4954986;28;20408;-70
2022/05/15 11:09:34;;;;;;;2.17;2.00;;;30.50;84.40;;;;;;4954092;29;20659;-71
2022/05/15 11:12:33;;;;;;;3.83;1.97;;;30.10;83.20;;;;;;4953893;28;20432;-71
2022/05/15 11:15:13;;;;;;;2.20;1.67;;;29.60;84.40;;;;;;4946909;29;20774;-72
2022/05/15 11:18:00;;;;;;;3.13;2.83;;;29.30;84.90;;;;;;4954906;29;20400;-71
2022/05/15 11:20:39;;;;;;;4.57;2.43;;;29.00;84.10;;;;;;4935138;29;20421;-71
2022/05/15 11:23:22;;;;;;;4.17;1.87;;;29.10;87.00;;;;;;4944243;29;20436;-71
2022/05/15 11:25:59;;;;;;;1.60;1.50;;;29.00;84.50;;;;;;4935675;29;20424;-70
2022/05/15 11:28:39;;;;;;;2.93;1.87;;;28.70;85.60;;;;;;4937232;29;20413;-69
2022/05/15 11:31:15;;;;;;;2.07;1.77;;;28.40;86.30;;;;;;4953188;28;20440;-71
2022/05/15 11:33:44;;;;;;;1.63;1.53;;;28.40;89.20;;;;;;4953751;28;20495;-77
2022/05/15 11:36:13;;;;;;;1.77;1.50;;;28.90;88.00;;;;;;4954008;28;20941;-71
2022/05/15 11:38:47;;;;;;;2.40;1.80;;;29.20;89.10;;;;;;4953561;28;20436;-71
2022/05/15 11:41:31;;;;;;;2.67;2.00;;;29.30;88.50;;;;;;4953066;28;20980;-71
2022/05/15 11:44:05;;;;;;;8.43;3.83;;;29.20;84.80;;;;;;4954024;29;21116;-71
2022/05/15 11:46:46;;;;;;;2.30;1.30;;;29.00;85.70;;;;;;4947490;29;20428;-74
2022/05/15 11:49:30;;;;;;;4.73;1.73;;;28.80;84.30;;;;;;4953619;28;20448;-71
2022/05/15 11:52:08;;;;;;;3.27;1.37;;;28.50;87.70;;;;;;4953108;28;20440;-71
2022/05/15 11:54:39;;;;;;;3.50;2.03;;;28.70;87.90;;;;;;4936156;29;20496;-71
2022/05/15 11:57:08;;;;;;;7.37;1.70;;;28.70;86.40;;;;;;4953926;28;20435;-70
2022/05/15 11:59:47;;;;;;;3.40;1.63;;;28.40;86.90;;;;;;4953373;28;20408;-71
2022/05/15 12:02:33;;;;;;;5.13;1.87;;;28.40;86.60;;;;;;4951337;29;20451;-71
2022/05/15 12:05:21;;;;;;;3.80;1.80;;;28.60;90.10;;;;;;4953354;28;20419;-70
2022/05/15 12:08:07;;;;;;;1.40;1.30;;;28.70;89.70;;;;;;4953916;28;20629;-71
2022/05/15 12:10:32;;;;;;;2.57;1.80;;;28.60;86.40;;;;;;4952129;28;20478;-69
2022/05/15 12:13:10;;;;;;;2.87;1.53;;;28.70;88.30;;;;;;4953415;28;21016;-71
2022/05/15 12:15:46;;;;;;;7.37;1.67;;;28.50;85.40;;;;;;4953035;28;20275;-71
2022/05/15 12:18:23;;;;;;;1.83;1.73;;;28.30;85.90;;;;;;4953232;28;20447;-71
2022/05/15 12:20:52;;;;;;;9.87;2.40;;;28.10;87.20;;;;;;4952633;29;20432;-71
2022/05/15 12:23:23;;;;;;;4.17;2.00;;;27.70;85.70;;;;;;4953498;28;20424;-71
2022/05/15 12:25:57;;;;;;;7.77;3.43;;;27.50;85.60;;;;;;4952569;28;20439;-73
2022/05/15 12:28:52;;;;;;;5.90;1.60;;;27.50;88.20;;;;;;4952801;28;20915;-69
2022/05/15 12:31:37;;;;;;;3.50;1.40;;;27.70;88.70;;;;;;4951492;28;20558;-69
2022/05/15 12:34:11;;;;;;;3.03;1.90;;;28.10;89.00;;;;;;4952688;28;20439;-70
2022/05/15 12:36:40;;;;;;;5.60;2.37;;;28.00;86.60;;;;;;4951016;28;20969;-70
2022/05/15 12:39:07;;;;;;;2.73;1.80;;;28.20;86.50;;;;;;4952821;28;20515;-70
2022/05/15 12:41:36;;;;;;;2.80;1.40;;;28.20;84.50;;;;;;4951460;28;20982;-71
2022/05/15 12:44:06;;;;;;;3.73;1.87;;;27.90;82.60;;;;;;4952401;29;20428;-69
2022/05/15 12:46:38;;;;;;;2.50;1.57;;;27.80;84.40;;;;;;4952677;28;20511;-71
2022/05/15 12:49:05;;;;;;;3.77;1.73;;;27.60;82.80;;;;;;4952009;28;20499;-71
2022/05/15 12:51:34;;;;;;;3.10;1.70;;;27.60;82.80;;;;;;4952248;28;20437;-74
2022/05/15 12:54:02;;;;;;;1.90;1.27;;;27.30;83.00;;;;;;4952433;28;20439;-71
2022/05/15 12:56:35;;;;;;;1.57;1.47;;;27.20;83.00;;;;;;4952130;28;20420;-73
2022/05/15 12:59:07;;;;;;;3.80;1.33;;;27.00;82.50;;;;;;4951508;28;20790;-70
2022/05/15 13:01:33;;;;;;;2.40;1.30;;;27.00;83.70;;;;;;4951697;28;20472;-71
2022/05/15 13:04:02;;;;;;;1.77;1.67;;;26.90;84.90;;;;;;4951777;28;20473;-70
2022/05/15 13:06:33;;;;;;;9.50;2.20;;;27.00;83.20;;;;;;4952287;28;20421;-74
2022/05/15 13:09:03;;;;;;;3.30;2.40;;;26.90;83.20;;;;;;4951272;29;20471;-71
2022/05/15 13:11:40;;;;;;;2.73;1.60;;;26.90;81.00;;;;;;4950973;28;20578;-73
2022/05/15 13:14:14;;;;;;;4.53;2.27;;;26.90;83.00;;;;;;4951943;29;20436;-71
2022/05/15 13:16:44;;;;;;;4.47;2.30;;;27.00;85.40;;;;;;4952487;28;20413;-71
2022/05/15 13:19:14;;;;;;;4.93;1.77;;;27.20;84.00;;;;;;4951211;28;20479;-71
2022/05/15 13:21:42;;;;;;;1.60;1.50;;;27.20;83.50;;;;;;4949479;29;20486;-72
2022/05/15 13:24:09;;;;;;;2.90;1.50;;;27.20;81.70;;;;;;4951360;28;20436;-71
2022/05/15 13:26:44;;;;;;;2.60;1.73;;;27.40;81.70;;;;;;4952192;28;20420;-71
2022/05/15 13:29:14;;;;;;;1.87;1.70;;;27.50;83.50;;;;;;4951771;28;20499;-71
2022/05/15 13:31:40;;;;;;;2.13;1.70;;;27.60;81.60;;;;;;4950172;28;20478;-71
2022/05/15 13:34:10;;;;;;;2.63;1.50;;;27.60;82.40;;;;;;4951742;28;20440;-71
2022/05/15 13:36:36;;;;;;;3.93;1.70;;;27.40;83.10;;;;;;4951601;28;20992;-73
2022/05/15 13:44:35;;;;;;;4.30;1.47;;;27.30;80.50;;;;;;4955904;28;20591;-73
2022/05/15 13:47:14;;;;;;;8.63;2.13;;;27.30;83.00;;;;;;4956225;28;20424;-73
2022/05/15 13:49:45;;;;;;;2.17;2.07;;;27.30;80.00;;;;;;4952940;29;20475;-74
2022/05/15 13:52:34;;;;;;;2.30;1.77;;;27.30;82.50;;;;;;4950468;28;21144;-75
2022/05/15 13:55:07;;;;;;;2.80;1.53;;;27.30;81.40;;;;;;4947882;28;20853;-72
2022/05/15 13:57:48;;;;;;;2.37;2.03;;;27.20;79.30;;;;;;4952298;28;20405;-71
2022/05/15 14:00:14;;;;;;;2.60;1.70;;;27.20;80.10;;;;;;4951631;29;20444;-74
2022/05/15 14:02:58;;;;;;;7.13;2.53;;;27.10;79.20;;;;;;4950748;28;20467;-74
2022/05/15 14:05:24;;;;;;;2.30;1.57;;;27.00;79.50;;;;;;4951210;28;20553;-74
2022/05/15 14:07:50;;;;;;;2.77;1.90;;;27.10;80.30;;;;;;4951479;28;20483;-71
2022/05/15 14:10:21;;;;;;;2.80;1.73;;;27.00;78.40;;;;;;4950898;28;20291;-71
2022/05/15 14:12:53;;;;;;;5.93;1.77;;;27.00;78.10;;;;;;4944602;28;20559;-72
2022/05/15 14:15:45;;;;;;;2.30;1.57;;;26.90;75.70;;;;;;4951552;28;20415;-75
2022/05/15 14:18:26;;;;;;;1.80;1.20;;;26.90;77.50;;;;;;4956147;28;20420;-74
2022/05/15 14:20:54;;;;;;;2.63;1.83;;;27.00;77.00;;;;;;4955612;28;20431;-71
2022/05/15 14:23:23;;;;;;;3.60;1.60;;;27.10;81.00;;;;;;4957897;28;20444;-74
2022/05/15 14:25:49;;;;;;;1.63;1.53;;;27.10;79.20;;;;;;4954931;28;20404;-72
2022/05/15 14:28:16;;;;;;;3.40;1.60;;;27.20;79.10;;;;;;4955479;28;20770;-70
2022/05/15 14:30:46;;;;;;;2.70;1.37;;;27.20;78.20;;;;;;4954516;28;20562;-72
2022/05/15 14:33:16;;;;;;;2.50;1.40;;;27.30;77.30;;;;;;4953709;29;20517;-71
2022/05/15 14:35:45;;;;;;;2.00;1.90;;;27.20;77.90;;;;;;4954508;28;20659;-69
2022/05/15 14:38:11;;;;;;;5.07;2.17;;;27.20;79.70;;;;;;4954755;28;20444;-70
2022/05/15 14:40:37;;;;;;;5.10;1.27;;;27.30;79.10;;;;;;4954339;28;20444;-68
2022/05/15 14:43:03;;;;;;;2.17;1.50;;;27.40;80.20;;;;;;4953467;28;20577;-70
2022/05/15 14:45:31;;;;;;;6.70;1.53;;;27.30;80.20;;;;;;4953963;28;20468;-73
2022/05/15 14:48:02;;;;;;;2.10;1.50;;;27.30;79.80;;;;;;4954471;28;20556;-73
2022/05/15 14:50:29;;;;;;;3.87;2.00;;;27.20;79.60;;;;;;4954268;28;20474;-71
2022/05/15 14:52:56;;;;;;;3.07;2.70;;;27.20;82.20;;;;;;4956927;28;20998;-71
2022/05/15 14:58:11;;;;;;;1.80;1.40;;;27.10;80.20;;;;;;4953866;28;20467;-71
2022/05/15 15:00:36;;;;;;;3.20;1.63;;;27.10;80.10;;;;;;4954219;28;20460;-68
2022/05/15 15:03:02;;;;;;;1.53;1.43;;;27.00;81.40;;;;;;4954262;28;20448;-72
2022/05/15 15:05:44;;;;;;;5.67;2.00;;;27.00;79.90;;;;;;4953571;28;20541;-71
2022/05/15 15:08:23;;;;;;;3.43;1.83;;;26.90;80.70;;;;;;4953801;28;20191;-70